Maria — SV7156 — position and weather

sailwx.info

Track history (hours):
 
Tides and Currents Weather Stations Pressure Air Temp Water Temp Dewpoint Dewpoint Depression Visibility Wind Speed Wind Dir Waves Ship Positions

Maria

Last reported at 2017-Mar-21 13:03 UTC. Time now 2017-Mar-23 12:34 UTC.
Position N 37°58' E 023°35'.

Length 74 m; draft 4.5 m.

Type: Ship. MMSI: 237493000.

Date/timePositionNaut miles runAvg speedWind from/ knotsBaromVisibWave heightAir tempDewpointWater temp
2017-Mar-21 13:03N 37°58' E 023°35'3 6.3
2017-Mar-21 12:33N 37°55' E 023°33'2 2.0
2017-Mar-21 11:33N 37°53' E 023°32'0 0.0
2017-Mar-21 10:33N 37°53' E 023°32'0 0.1
2017-Mar-21 09:33N 37°53' E 023°32'0 0.1
2017-Mar-21 08:33N 37°53' E 023°32'1 0.6
2017-Mar-21 07:33N 37°52' E 023°33'5 0.1
2017-Mar-19 05:33N 37°58' E 023°33'4 4.4
2017-Mar-19 04:33N 38°02' E 023°36'0 0.0
2017-Mar-19 03:33N 38°02' E 023°36'0 0.0
2017-Mar-19 02:33N 38°02' E 023°36'0 0.0
2017-Mar-19 01:33N 38°02' E 023°36'0 0.0
2017-Mar-19 00:33N 38°02' E 023°36'0 0.0
2017-Mar-18 23:33N 38°02' E 023°36'1 0.5
2017-Mar-18 22:33N 38°02' E 023°35'0 0.0
2017-Mar-18 21:33N 38°02' E 023°35'0 0.0
2017-Mar-18 20:29N 38°02' E 023°35'1 0.7
2017-Mar-18 19:34N 38°01' E 023°34'4 4.0
2017-Mar-18 18:32N 37°57' E 023°36'0 0.0
2017-Mar-18 17:33N 37°57' E 023°36'0 0.0
2017-Mar-18 16:15N 37°57' E 023°36'0 0.0
2017-Mar-18 15:26N 37°57' E 023°36'0 0.0
2017-Mar-18 14:33N 37°57' E 023°36'0 0.1
2017-Mar-18 13:33N 37°57' E 023°36'1 0.1
2017-Mar-18 04:33N 37°57' E 023°35'8 6.2
2017-Mar-18 03:20N 37°52' E 023°28'5 6.9
2017-Mar-18 02:33N 37°53' E 023°21'3 0.2
2017-Mar-17 11:33N 37°53' E 023°17'10 7.6
2017-Mar-17 10:10N 37°52' E 023°30'2 3.2
2017-Mar-17 09:31N 37°52' E 023°33'0 0.0
2017-Mar-17 08:32N 37°52' E 023°33'0 0.1
2017-Mar-17 07:32N 37°52' E 023°33'0 0.3
2017-Mar-17 06:24N 37°53' E 023°33'5 5.9
2017-Mar-17 05:33N 37°57' E 023°35'0 0.0
2017-Mar-16 13:18N 37°58' E 023°35'1 1.2
2017-Mar-16 12:33N 37°57' E 023°36'0 0.0
2017-Mar-16 11:33N 37°57' E 023°36'0 0.0
2017-Mar-16 10:33N 37°57' E 023°36'0 0.0
2017-Mar-16 09:33N 37°57' E 023°36'0 0.0
2017-Mar-16 08:33N 37°57' E 023°36'0 0.0
2017-Mar-16 07:22N 37°57' E 023°36'0 0.1
2017-Mar-16 06:34N 37°57' E 023°36'4 3.9
2017-Mar-16 05:33N 38°01' E 023°34'0 0.4
2017-Mar-16 04:28N 38°02' E 023°34'0 0.0
2017-Mar-16 03:33N 38°02' E 023°35'0 0.0
2017-Mar-16 02:34N 38°02' E 023°35'1 0.9
2017-Mar-16 01:33N 38°02' E 023°36'0 0.0
2017-Mar-16 00:34N 38°02' E 023°36'0 0.0
2017-Mar-15 23:34N 38°02' E 023°36'0 0.0
2017-Mar-15 22:33N 38°02' E 023°36'1 0.7
2017-Mar-15 21:33N 38°02' E 023°35'0 0.0
2017-Mar-15 20:33N 38°02' E 023°35'0 0.0
2017-Mar-15 19:33N 38°02' E 023°35'0 0.0
2017-Mar-15 18:33N 38°02' E 023°35'0 0.0
2017-Mar-15 17:33N 38°02' E 023°35'4 3.7
2017-Mar-15 16:33N 37°59' E 023°33'3 0.2
2017-Mar-15 03:33N 37°57' E 023°36'0 0.0
2017-Mar-15 02:33N 37°57' E 023°36'0 0.0
2017-Mar-15 01:33N 37°57' E 023°36'0 0.0
2017-Mar-15 00:33N 37°57' E 023°36'0 0.0
2017-Mar-14 23:21N 37°57' E 023°36'0 0.0
2017-Mar-14 22:33N 37°57' E 023°36'0 0.0
2017-Mar-14 21:32N 37°57' E 023°36'0 0.0
2017-Mar-14 20:33N 37°57' E 023°36'1 0.9
2017-Mar-14 19:21N 37°58' E 023°35'  
Track history (hours):
 
Tides and Currents Weather Stations Pressure Air Temp Water Temp Dewpoint Dewpoint Depression Visibility Wind Speed Wind Dir Waves Ship Positions

Maria

Last reported at 2017-Mar-21 13:03 UTC. Time now 2017-Mar-23 12:34 UTC.
Position N 37°58' E 023°35'.

Length 74 m; draft 4.5 m.

Type: Ship. MMSI: 237493000.

Date/timePositionNaut miles runAvg speedWind from/ knotsBaromVisibWave heightAir tempDewpointWater temp
2017-Mar-21 13:03N 37°58' E 023°35'3 6.3
2017-Mar-21 12:33N 37°55' E 023°33'2 2.0
2017-Mar-21 11:33N 37°53' E 023°32'0 0.0
2017-Mar-21 10:33N 37°53' E 023°32'0 0.1
2017-Mar-21 09:33N 37°53' E 023°32'0 0.1
2017-Mar-21 08:33N 37°53' E 023°32'1 0.6
2017-Mar-21 07:33N 37°52' E 023°33'5 0.1
2017-Mar-19 05:33N 37°58' E 023°33'4 4.4
2017-Mar-19 04:33N 38°02' E 023°36'0 0.0
2017-Mar-19 03:33N 38°02' E 023°36'0 0.0
2017-Mar-19 02:33N 38°02' E 023°36'0 0.0
2017-Mar-19 01:33N 38°02' E 023°36'0 0.0
2017-Mar-19 00:33N 38°02' E 023°36'0 0.0
2017-Mar-18 23:33N 38°02' E 023°36'1 0.5
2017-Mar-18 22:33N 38°02' E 023°35'0 0.0
2017-Mar-18 21:33N 38°02' E 023°35'0 0.0
2017-Mar-18 20:29N 38°02' E 023°35'1 0.7
2017-Mar-18 19:34N 38°01' E 023°34'4 4.0
2017-Mar-18 18:32N 37°57' E 023°36'0 0.0
2017-Mar-18 17:33N 37°57' E 023°36'0 0.0
2017-Mar-18 16:15N 37°57' E 023°36'0 0.0
2017-Mar-18 15:26N 37°57' E 023°36'0 0.0
2017-Mar-18 14:33N 37°57' E 023°36'0 0.1
2017-Mar-18 13:33N 37°57' E 023°36'1 0.1
2017-Mar-18 04:33N 37°57' E 023°35'8 6.2
2017-Mar-18 03:20N 37°52' E 023°28'5 6.9
2017-Mar-18 02:33N 37°53' E 023°21'3 0.2
2017-Mar-17 11:33N 37°53' E 023°17'10 7.6
2017-Mar-17 10:10N 37°52' E 023°30'2 3.2
2017-Mar-17 09:31N 37°52' E 023°33'0 0.0
2017-Mar-17 08:32N 37°52' E 023°33'0 0.1
2017-Mar-17 07:32N 37°52' E 023°33'0 0.3
2017-Mar-17 06:24N 37°53' E 023°33'5 5.9
2017-Mar-17 05:33N 37°57' E 023°35'0 0.0
2017-Mar-16 13:18N 37°58' E 023°35'1 1.2
2017-Mar-16 12:33N 37°57' E 023°36'0 0.0
2017-Mar-16 11:33N 37°57' E 023°36'0 0.0
2017-Mar-16 10:33N 37°57' E 023°36'0 0.0
2017-Mar-16 09:33N 37°57' E 023°36'0 0.0
2017-Mar-16 08:33N 37°57' E 023°36'0 0.0
2017-Mar-16 07:22N 37°57' E 023°36'0 0.1
2017-Mar-16 06:34N 37°57' E 023°36'4 3.9
2017-Mar-16 05:33N 38°01' E 023°34'0 0.4
2017-Mar-16 04:28N 38°02' E 023°34'0 0.0
2017-Mar-16 03:33N 38°02' E 023°35'0 0.0
2017-Mar-16 02:34N 38°02' E 023°35'1 0.9
2017-Mar-16 01:33N 38°02' E 023°36'0 0.0
2017-Mar-16 00:34N 38°02' E 023°36'0 0.0
2017-Mar-15 23:34N 38°02' E 023°36'0 0.0
2017-Mar-15 22:33N 38°02' E 023°36'1 0.7
2017-Mar-15 21:33N 38°02' E 023°35'0 0.0
2017-Mar-15 20:33N 38°02' E 023°35'0 0.0
2017-Mar-15 19:33N 38°02' E 023°35'0 0.0
2017-Mar-15 18:33N 38°02' E 023°35'0 0.0
2017-Mar-15 17:33N 38°02' E 023°35'4 3.7
2017-Mar-15 16:33N 37°59' E 023°33'3 0.2
2017-Mar-15 03:33N 37°57' E 023°36'0 0.0
2017-Mar-15 02:33N 37°57' E 023°36'0 0.0
2017-Mar-15 01:33N 37°57' E 023°36'0 0.0
2017-Mar-15 00:33N 37°57' E 023°36'0 0.0
2017-Mar-14 23:21N 37°57' E 023°36'0 0.0
2017-Mar-14 22:33N 37°57' E 023°36'0 0.0
2017-Mar-14 21:32N 37°57' E 023°36'0 0.0
2017-Mar-14 20:33N 37°57' E 023°36'1 0.9
2017-Mar-14 19:21N 37°58' E 023°35'  

Dump ship's entire track history